createdAt,value
2019-02-15T00:00:13.620Z,6.30
2019-02-15T00:02:42.623Z,5.47
2019-02-15T00:05:12.811Z,5.90
2019-02-15T00:07:42.446Z,5.60
2019-02-15T00:10:11.295Z,5.73
2019-02-15T00:12:40.110Z,5.73
2019-02-15T00:15:09.138Z,6.07
2019-02-15T00:17:51.565Z,5.80
2019-02-15T00:20:21.859Z,5.80
2019-02-15T00:22:51.070Z,5.47
2019-02-15T00:25:19.747Z,5.23
2019-02-15T00:27:48.458Z,5.50
2019-02-15T00:30:17.127Z,5.40
2019-02-15T00:32:45.838Z,5.70
2019-02-15T00:35:14.514Z,5.33
2019-02-15T00:37:43.316Z,5.20
2019-02-15T00:40:11.987Z,5.50
2019-02-15T00:42:40.679Z,5.37
2019-02-15T00:45:10.997Z,5.47
2019-02-15T00:47:50.411Z,5.17
2019-02-15T00:50:37.150Z,4.23
2019-02-15T00:53:09.870Z,4.90
2019-02-15T00:55:40.144Z,4.77
2019-02-15T00:58:10.442Z,4.00
2019-02-15T01:00:46.307Z,4.20
2019-02-15T01:03:19.774Z,4.20
2019-02-15T01:06:06.399Z,4.60
2019-02-15T01:08:36.695Z,4.30
2019-02-15T01:11:06.929Z,4.90
2019-02-15T01:13:35.801Z,4.07
2019-02-15T01:16:04.461Z,4.00
2019-02-15T01:18:33.222Z,4.60
2019-02-15T01:21:01.888Z,4.47
2019-02-15T01:23:30.615Z,4.30
2019-02-15T01:26:00.885Z,4.30
2019-02-15T01:28:40.252Z,4.20
2019-02-15T01:31:22.681Z,3.83
2019-02-15T01:33:52.974Z,3.67
2019-02-15T01:36:29.318Z,4.03
2019-02-15T01:39:11.598Z,3.33
2019-02-15T01:41:44.443Z,3.80
2019-02-15T01:44:14.727Z,3.67
2019-02-15T01:46:44.970Z,3.73
2019-02-15T01:49:13.686Z,4.67
2019-02-15T01:51:42.339Z,4.17
2019-02-15T01:54:30.303Z,3.60
2019-02-15T01:56:58.963Z,4.20
2019-02-15T01:59:27.665Z,4.50
2019-02-15T02:01:56.430Z,2.77
2019-02-15T02:04:25.104Z,3.20
2019-02-15T02:06:54.162Z,3.40
2019-02-15T02:09:24.740Z,3.60
2019-02-15T02:11:53.453Z,2.93
2019-02-15T02:14:22.152Z,2.30
2019-02-15T02:16:50.833Z,2.90
2019-02-15T02:19:19.566Z,2.83
2019-02-15T02:21:48.273Z,2.50
2019-02-15T02:24:16.920Z,3.60
2019-02-15T02:26:45.616Z,2.60
2019-02-15T02:29:14.292Z,4.03
2019-02-15T02:31:43.018Z,3.57
2019-02-15T02:34:11.699Z,3.77
2019-02-15T02:36:51.003Z,3.53
2019-02-15T02:39:19.966Z,4.00
2019-02-15T02:41:48.768Z,4.10
2019-02-15T02:44:17.485Z,4.13
2019-02-15T02:46:46.506Z,3.30
2019-02-15T02:49:15.178Z,2.97
2019-02-15T02:51:43.843Z,2.73
2019-02-15T02:54:12.583Z,2.63
2019-02-15T02:56:41.264Z,3.10
2019-02-15T02:59:09.998Z,3.23
2019-02-15T03:01:38.815Z,2.83
2019-02-15T03:04:07.501Z,3.63
2019-02-15T03:06:36.147Z,4.20
2019-02-15T03:09:08.157Z,3.83
2019-02-15T03:11:36.818Z,3.80
2019-02-15T03:14:11.348Z,3.50
2019-02-15T03:16:35.963Z,3.33
2019-02-15T03:19:04.728Z,3.90
2019-02-15T03:21:33.635Z,3.87
2019-02-15T03:24:02.347Z,3.80
2019-02-15T03:26:31.031Z,4.60
2019-02-15T03:28:59.698Z,3.87
2019-02-15T03:31:28.408Z,3.70
2019-02-15T03:33:57.150Z,4.90
2019-02-15T03:36:27.430Z,3.83
2019-02-15T03:38:57.676Z,2.90
2019-02-15T03:41:28.010Z,3.80
2019-02-15T03:43:56.911Z,3.10
2019-02-15T03:46:26.026Z,3.00
2019-02-15T03:48:54.683Z,3.03
2019-02-15T03:51:23.598Z,3.63
2019-02-15T03:53:52.257Z,3.90
2019-02-15T03:56:20.956Z,2.17
2019-02-15T03:58:52.163Z,3.00
2019-02-15T04:01:21.056Z,3.27
2019-02-15T04:03:49.744Z,3.90
2019-02-15T04:06:18.421Z,3.67
2019-02-15T04:08:47.130Z,3.17
2019-02-15T04:11:15.871Z,3.33
2019-02-15T04:13:44.568Z,3.13
2019-02-15T04:16:13.276Z,3.67
2019-02-15T04:18:41.935Z,3.20
2019-02-15T04:21:10.654Z,3.33
2019-02-15T04:23:39.578Z,4.07
2019-02-15T04:26:08.281Z,3.37
2019-02-15T04:28:37.036Z,3.77
2019-02-15T04:31:05.768Z,3.00
2019-02-15T04:33:34.504Z,3.50
2019-02-15T04:36:03.200Z,3.70
2019-02-15T04:38:31.954Z,3.63
2019-02-15T04:41:00.639Z,4.40
2019-02-15T04:43:29.337Z,4.17
2019-02-15T04:45:58.020Z,3.10
2019-02-15T04:48:26.739Z,3.77
2019-02-15T04:50:55.708Z,4.27
2019-02-15T04:53:24.381Z,4.10
2019-02-15T04:55:53.068Z,4.23
2019-02-15T04:58:21.781Z,3.63
2019-02-15T05:00:50.444Z,3.67
2019-02-15T05:03:19.640Z,4.73
2019-02-15T05:05:48.464Z,4.10
2019-02-15T05:08:17.181Z,3.73
2019-02-15T05:10:45.892Z,4.77
2019-02-15T05:13:14.579Z,3.40
2019-02-15T05:15:43.303Z,4.10
2019-02-15T05:18:11.969Z,4.10
2019-02-15T05:20:40.637Z,3.97
2019-02-15T05:23:09.359Z,3.13
2019-02-15T05:25:38.084Z,3.63
2019-02-15T05:28:08.828Z,4.10
2019-02-15T05:30:37.210Z,4.40
2019-02-15T05:33:05.870Z,4.23
2019-02-15T05:35:34.585Z,3.80
2019-02-15T05:38:03.277Z,3.83
2019-02-15T05:40:32.026Z,3.70
2019-02-15T05:43:00.730Z,4.30
2019-02-15T05:45:29.423Z,5.30
2019-02-15T05:47:58.108Z,5.07
2019-02-15T05:50:26.760Z,4.27
2019-02-15T05:52:55.743Z,4.20
2019-02-15T05:55:24.460Z,4.40
2019-02-15T05:57:53.157Z,4.30
2019-02-15T06:00:21.820Z,3.40
2019-02-15T06:02:50.534Z,4.47
2019-02-15T06:05:19.286Z,4.73
2019-02-15T06:07:48.039Z,4.27
2019-02-15T06:10:16.952Z,3.83
2019-02-15T06:12:45.686Z,5.47
2019-02-15T06:15:15.396Z,4.50
2019-02-15T06:17:44.579Z,4.70
2019-02-15T06:20:13.240Z,4.97
2019-02-15T06:22:41.923Z,4.60
2019-02-15T06:25:10.658Z,4.80
2019-02-15T06:27:39.348Z,3.80
2019-02-15T06:30:09.382Z,4.53
2019-02-15T06:32:38.101Z,4.73
2019-02-15T06:35:06.801Z,4.30
2019-02-15T06:37:35.581Z,5.10
2019-02-15T06:40:05.279Z,3.60
2019-02-15T06:42:33.987Z,3.73
2019-02-15T06:45:02.661Z,4.90
2019-02-15T06:47:31.382Z,4.60
2019-02-15T06:50:00.194Z,5.27
2019-02-15T06:52:29.227Z,4.90
2019-02-15T06:54:57.888Z,4.67
2019-02-15T06:57:26.587Z,4.50
2019-02-15T07:00:13.067Z,4.77
2019-02-15T07:02:46.147Z,5.40
2019-02-15T07:05:16.663Z,5.30
2019-02-15T07:07:45.343Z,5.70
2019-02-15T07:10:13.996Z,4.60
2019-02-15T07:12:42.699Z,4.67
2019-02-15T07:15:11.373Z,5.40
2019-02-15T07:17:40.086Z,6.17
2019-02-15T07:20:10.065Z,5.70
2019-02-15T07:22:38.726Z,5.10
2019-02-15T07:25:11.972Z,5.30
2019-02-15T07:27:40.853Z,5.57
2019-02-15T07:30:15.630Z,5.10
2019-02-15T07:32:44.733Z,4.37
2019-02-15T07:35:13.451Z,4.50
2019-02-15T07:37:42.145Z,4.23
2019-02-15T07:40:11.133Z,4.93
2019-02-15T07:42:39.810Z,4.30
2019-02-15T07:45:12.164Z,6.07
2019-02-15T07:47:40.947Z,4.90
2019-02-15T07:50:14.258Z,4.47
2019-02-15T07:52:42.929Z,4.33
2019-02-15T07:55:11.700Z,5.03
2019-02-15T07:57:40.694Z,6.07
2019-02-15T08:00:12.448Z,4.37
2019-02-15T08:02:41.155Z,5.03
2019-02-15T08:05:11.641Z,6.00
2019-02-15T08:07:40.347Z,5.60
2019-02-15T08:10:11.050Z,4.53
2019-02-15T08:12:40.005Z,4.83
2019-02-15T08:15:10.200Z,4.33
2019-02-15T08:17:38.897Z,6.40
2019-02-15T08:20:10.106Z,5.47
2019-02-15T08:22:39.127Z,4.67
2019-02-15T08:25:09.529Z,5.10
2019-02-15T08:27:38.222Z,5.37
2019-02-15T08:30:09.786Z,4.63
2019-02-15T08:32:38.655Z,3.77
2019-02-15T08:35:09.814Z,3.93
2019-02-15T08:37:38.596Z,4.07
2019-02-15T08:40:10.091Z,4.53
2019-02-15T08:42:38.871Z,4.10
2019-02-15T08:45:12.749Z,3.03
2019-02-15T08:47:41.674Z,3.10
2019-02-15T08:50:11.759Z,3.83
2019-02-15T08:52:40.498Z,2.70
2019-02-15T08:55:10.982Z,2.37
2019-02-15T08:57:39.852Z,2.10
2019-02-15T09:00:11.336Z,2.03
2019-02-15T09:02:40.050Z,1.30
2019-02-15T09:05:10.832Z,1.87
2019-02-15T09:07:39.544Z,1.50
2019-02-15T09:10:11.803Z,1.07
2019-02-15T09:12:40.502Z,1.23
2019-02-15T09:15:17.836Z,1.30
2019-02-15T09:17:46.599Z,1.77
2019-02-15T09:20:15.269Z,2.20
2019-02-15T09:22:44.130Z,1.80
2019-02-15T09:25:12.863Z,1.70
2019-02-15T09:27:43.137Z,1.40
2019-02-15T09:30:14.092Z,1.70
2019-02-15T09:32:42.933Z,1.30
2019-02-15T09:35:12.477Z,1.17
2019-02-15T09:37:41.173Z,1.50
2019-02-15T09:40:10.633Z,0.90
2019-02-15T09:42:47.110Z,1.20
2019-02-15T09:45:15.871Z,1.40
2019-02-15T09:47:44.585Z,0.83
2019-02-15T09:50:13.565Z,1.00
2019-02-15T09:52:42.278Z,0.90
2019-02-15T09:55:11.095Z,0.90
2019-02-15T09:57:39.778Z,1.37
2019-02-15T10:00:10.260Z,0.97
2019-02-15T10:02:38.947Z,0.67
2019-02-15T10:05:08.724Z,0.97
2019-02-15T10:07:37.892Z,1.40
2019-02-15T10:10:10.240Z,0.80
2019-02-15T10:12:38.976Z,1.00
2019-02-15T10:15:09.982Z,0.57
2019-02-15T10:17:38.833Z,0.60
2019-02-15T10:20:08.725Z,0.53
2019-02-15T10:22:37.421Z,1.13
2019-02-15T10:25:08.176Z,1.40
2019-02-15T10:27:39.907Z,1.00
2019-02-15T10:30:14.951Z,0.97
2019-02-15T10:32:45.914Z,0.80
2019-02-15T10:35:14.664Z,0.83
2019-02-15T10:37:43.335Z,0.50
2019-02-15T10:40:12.344Z,0.60
2019-02-15T10:42:41.023Z,3.07
2019-02-15T10:45:14.664Z,0.70
2019-02-15T10:47:43.363Z,0.70
2019-02-15T10:50:12.271Z,0.43
2019-02-15T10:52:40.911Z,0.50
2019-02-15T10:55:09.836Z,0.60
2019-02-15T10:57:38.542Z,0.80
2019-02-15T11:00:17.139Z,0.70
2019-02-15T11:02:46.056Z,0.50
2019-02-15T11:05:16.042Z,0.70
2019-02-15T11:07:44.714Z,0.70
2019-02-15T11:10:13.819Z,0.60
2019-02-15T11:12:42.542Z,0.77
2019-02-15T11:15:17.750Z,0.57
2019-02-15T11:17:46.481Z,0.30
2019-02-15T11:20:16.803Z,0.57
2019-02-15T11:22:45.450Z,0.50
2019-02-15T11:25:14.157Z,0.60
2019-02-15T11:27:42.832Z,0.50
2019-02-15T11:30:16.643Z,1.40
2019-02-15T11:32:45.314Z,0.97
2019-02-15T11:35:14.621Z,0.50
2019-02-15T11:37:43.419Z,1.90
2019-02-15T11:40:15.844Z,0.60
2019-02-15T11:42:44.530Z,0.57
2019-02-15T11:45:14.340Z,0.33
2019-02-15T11:47:43.081Z,0.70
2019-02-15T11:50:15.392Z,1.53
2019-02-15T11:52:44.124Z,1.00
2019-02-15T11:55:12.809Z,1.10
2019-02-15T11:57:41.521Z,0.90
2019-02-15T12:00:18.419Z,3.67
2019-02-15T12:02:46.824Z,0.90
2019-02-15T12:05:15.517Z,0.90
2019-02-15T12:07:44.214Z,0.93
2019-02-15T12:10:13.064Z,0.60
2019-02-15T12:12:41.844Z,0.80
2019-02-15T12:15:11.032Z,0.70
2019-02-15T12:17:39.752Z,2.53
2019-02-15T12:20:10.739Z,0.90
2019-02-15T12:22:39.423Z,0.63
2019-02-15T12:25:08.768Z,0.80
2019-02-15T12:27:37.496Z,1.80
2019-02-15T12:30:09.120Z,1.03
2019-02-15T12:32:37.824Z,0.80
2019-02-15T12:35:07.999Z,0.97
2019-02-15T12:37:36.701Z,1.07
2019-02-15T12:40:07.194Z,1.20
2019-02-15T12:42:35.931Z,1.13
2019-02-15T12:45:07.160Z,0.63
2019-02-15T12:47:35.956Z,2.23
2019-02-15T12:50:07.488Z,0.73
2019-02-15T12:52:37.618Z,1.10
2019-02-15T12:55:06.333Z,1.30
2019-02-15T12:57:35.057Z,1.27
2019-02-15T13:00:05.378Z,0.60
2019-02-15T13:02:34.105Z,0.90
2019-02-15T13:05:02.764Z,1.00
2019-02-15T13:07:31.759Z,0.80
2019-02-15T13:10:00.786Z,1.50
2019-02-15T13:12:29.509Z,0.90
2019-02-15T13:14:58.239Z,1.00
2019-02-15T13:17:26.908Z,1.83
2019-02-15T13:19:55.561Z,1.60
2019-02-15T13:22:24.273Z,0.77
2019-02-15T13:24:53.063Z,0.80
2019-02-15T13:27:21.745Z,0.90
2019-02-15T13:29:50.434Z,1.00
2019-02-15T13:32:19.144Z,0.93
2019-02-15T13:34:48.099Z,1.07
2019-02-15T13:37:16.971Z,1.00
2019-02-15T13:39:45.733Z,1.90
2019-02-15T13:42:14.436Z,1.00
2019-02-15T13:44:43.158Z,0.90
2019-02-15T13:47:11.853Z,1.20
2019-02-15T13:49:40.569Z,0.80
2019-02-15T13:52:09.377Z,1.00
2019-02-15T13:54:38.574Z,0.97
2019-02-15T13:57:07.434Z,1.20
2019-02-15T13:59:36.137Z,1.07
2019-02-15T14:02:06.506Z,1.17
2019-02-15T14:04:35.452Z,0.80
2019-02-15T14:07:07.118Z,1.10
2019-02-15T14:09:35.909Z,1.07
2019-02-15T14:12:04.630Z,0.83
2019-02-15T14:14:33.338Z,1.10
2019-02-15T14:17:02.093Z,1.03
2019-02-15T14:19:30.778Z,0.97
2019-02-15T14:21:59.564Z,0.90
2019-02-15T14:24:28.289Z,0.87
2019-02-15T14:26:57.316Z,1.63
2019-02-15T14:29:26.082Z,1.20
2019-02-15T14:31:55.836Z,1.70
2019-02-15T14:34:24.539Z,0.90
2019-02-15T14:36:53.624Z,1.17
2019-02-15T14:39:22.321Z,1.00
2019-02-15T14:41:51.274Z,1.00
2019-02-15T14:44:19.971Z,1.13
2019-02-15T14:46:48.758Z,0.70
2019-02-15T14:49:17.448Z,1.43
2019-02-15T14:51:46.152Z,1.10
2019-02-15T14:54:14.879Z,0.70
2019-02-15T14:56:45.139Z,1.20
2019-02-15T14:59:13.839Z,1.00
2019-02-15T15:01:42.544Z,0.70
2019-02-15T15:04:11.252Z,0.83
2019-02-15T15:06:40.043Z,0.60
2019-02-15T15:09:09.434Z,1.00
2019-02-15T15:11:38.170Z,1.00
2019-02-15T15:14:06.891Z,0.87
2019-02-15T15:16:35.570Z,0.70
2019-02-15T15:19:04.384Z,1.03
2019-02-15T15:21:34.958Z,0.70
2019-02-15T15:24:03.520Z,0.40
2019-02-15T15:26:32.276Z,20.50
2019-02-15T15:29:00.985Z,10.27
2019-02-15T15:31:29.684Z,3.60
2019-02-15T15:33:58.981Z,1.63
2019-02-15T15:36:27.720Z,1.03
2019-02-15T15:38:56.456Z,1.07
2019-02-15T15:41:25.231Z,1.10
2019-02-15T15:43:53.910Z,1.00
2019-02-15T15:46:22.631Z,1.13
2019-02-15T15:48:51.348Z,0.83
2019-02-15T15:51:20.066Z,0.90
2019-02-15T15:53:48.825Z,0.70
2019-02-15T15:56:17.584Z,0.80
2019-02-15T15:58:46.345Z,1.13
2019-02-15T16:01:15.038Z,0.90
2019-02-15T16:03:45.837Z,1.27
2019-02-15T16:06:23.888Z,1.10
2019-02-15T16:08:44.936Z,1.10
2019-02-15T16:11:13.695Z,0.87
2019-02-15T16:13:42.391Z,0.97
2019-02-15T16:16:11.122Z,1.23
2019-02-15T16:18:39.831Z,0.80
2019-02-15T16:21:08.587Z,0.70
2019-02-15T16:23:37.318Z,1.50
2019-02-15T16:26:06.000Z,0.73
2019-02-15T16:28:34.778Z,0.70
2019-02-15T16:31:03.484Z,1.20
2019-02-15T16:33:32.277Z,1.57
2019-02-15T16:36:00.949Z,0.80
2019-02-15T16:38:29.691Z,1.23
2019-02-15T16:40:58.363Z,0.93
2019-02-15T16:43:27.089Z,1.20
2019-02-15T16:45:55.778Z,0.98
2019-02-15T16:48:24.501Z,1.13
2019-02-15T16:50:53.181Z,1.00
2019-02-15T16:53:22.021Z,0.73
2019-02-15T16:55:50.697Z,0.50
2019-02-15T16:58:19.402Z,0.77
2019-02-15T17:00:48.102Z,1.00
2019-02-15T17:03:16.781Z,1.00
2019-02-15T17:05:46.705Z,1.00
2019-02-15T17:08:15.367Z,1.07
2019-02-15T17:10:44.100Z,0.77
2019-02-15T17:13:12.937Z,1.00
2019-02-15T17:15:41.740Z,0.93
2019-02-15T17:18:10.433Z,0.77
2019-02-15T17:20:39.138Z,1.60
2019-02-15T17:23:07.876Z,0.90
2019-02-15T17:25:36.550Z,0.97
2019-02-15T17:28:05.358Z,0.70
2019-02-15T17:30:34.106Z,0.73
2019-02-15T17:33:03.157Z,0.93
2019-02-15T17:35:31.868Z,1.00
2019-02-15T17:38:00.586Z,2.13
2019-02-15T17:40:29.340Z,0.90
2019-02-15T17:42:59.529Z,1.00
2019-02-15T17:45:28.240Z,0.80
2019-02-15T17:47:56.954Z,0.70
2019-02-15T17:50:25.665Z,1.30
2019-02-15T17:52:54.442Z,0.70
2019-02-15T17:55:23.343Z,1.40
2019-02-15T17:57:52.064Z,26.57
2019-02-15T18:00:22.381Z,3.60
2019-02-15T18:02:51.077Z,1.27
2019-02-15T18:05:19.776Z,0.80
2019-02-15T18:07:50.127Z,1.37
2019-02-15T18:10:18.887Z,0.90
2019-02-15T18:12:47.572Z,0.90
2019-02-15T18:15:16.312Z,1.10
2019-02-15T18:17:45.018Z,1.50
2019-02-15T18:20:14.001Z,1.30
2019-02-15T18:22:42.709Z,0.80
2019-02-15T18:25:11.790Z,1.23
2019-02-15T18:27:40.512Z,0.80
2019-02-15T18:30:14.559Z,1.20
2019-02-15T18:32:43.564Z,0.80
2019-02-15T18:35:12.350Z,0.80
2019-02-15T18:37:41.052Z,1.10
2019-02-15T18:40:10.772Z,1.17
2019-02-15T18:42:39.562Z,1.30
2019-02-15T18:45:11.121Z,1.10
2019-02-15T18:47:39.906Z,0.90
2019-02-15T18:50:09.964Z,1.13
2019-02-15T18:52:38.756Z,1.57
2019-02-15T18:55:09.750Z,1.73
2019-02-15T18:57:38.471Z,0.87
2019-02-15T19:00:14.797Z,1.73
2019-02-15T19:02:45.497Z,1.43
2019-02-15T19:05:14.475Z,1.63
2019-02-15T19:07:44.677Z,1.13
2019-02-15T19:10:21.333Z,1.57
2019-02-15T19:12:50.053Z,1.37
2019-02-15T19:15:18.926Z,3.10
2019-02-15T19:17:47.647Z,2.43
2019-02-15T19:20:17.583Z,2.00
2019-02-15T19:22:46.256Z,1.10
2019-02-15T19:25:18.289Z,1.43
2019-02-15T19:27:47.082Z,1.50
2019-02-15T19:30:27.724Z,1.80
2019-02-15T19:32:56.419Z,1.37
2019-02-15T19:35:25.130Z,1.13
2019-02-15T19:37:53.907Z,1.57
2019-02-15T19:40:22.625Z,1.63
2019-02-15T19:42:53.922Z,2.00
2019-02-15T19:45:22.647Z,1.30
2019-02-15T19:47:51.345Z,1.70
2019-02-15T19:50:21.934Z,1.90
2019-02-15T19:52:50.658Z,1.27
2019-02-15T19:55:19.572Z,1.37
2019-02-15T19:57:48.323Z,1.50
2019-02-15T20:00:19.098Z,1.20
2019-02-15T20:02:47.873Z,1.40
2019-02-15T20:05:16.620Z,1.20
2019-02-15T20:07:46.291Z,1.70
2019-02-15T20:10:22.523Z,1.60
2019-02-15T20:12:51.274Z,1.30
2019-02-15T20:15:20.032Z,1.87
2019-02-15T20:17:48.753Z,2.50
2019-02-15T20:20:17.944Z,2.03
2019-02-15T20:22:46.684Z,2.23
2019-02-15T20:25:15.380Z,1.70
2019-02-15T20:27:44.105Z,1.43
2019-02-15T20:30:15.893Z,1.80
2019-02-15T20:32:44.635Z,1.70
2019-02-15T20:35:13.787Z,1.57
2019-02-15T20:37:42.608Z,1.90
2019-02-15T20:40:12.508Z,2.13
2019-02-15T20:42:41.285Z,1.87
2019-02-15T20:45:22.993Z,2.27
2019-02-15T20:47:51.750Z,1.70
2019-02-15T20:50:20.748Z,2.33
2019-02-15T20:52:49.426Z,2.60
2019-02-15T20:55:20.321Z,2.20
2019-02-15T20:57:49.023Z,2.33
2019-02-15T21:00:20.362Z,2.03
2019-02-15T21:02:49.089Z,2.60
2019-02-15T21:05:17.777Z,2.43
2019-02-15T21:07:46.514Z,2.20
2019-02-15T21:10:15.346Z,2.13
2019-02-15T21:12:44.212Z,2.40
2019-02-15T21:15:14.156Z,1.90
2019-02-15T21:17:44.087Z,2.23
2019-02-15T21:20:14.012Z,2.73
2019-02-15T21:22:42.715Z,2.10
2019-02-15T21:25:13.274Z,1.97
2019-02-15T21:27:42.023Z,2.50
2019-02-15T21:30:13.217Z,2.67
2019-02-15T21:32:42.013Z,2.47
2019-02-15T21:35:10.756Z,1.73
2019-02-15T21:37:39.844Z,2.50
2019-02-15T21:40:14.736Z,2.50
2019-02-15T21:42:43.437Z,3.10
2019-02-15T21:45:12.463Z,2.60
2019-02-15T21:47:41.226Z,2.93
2019-02-15T21:50:17.073Z,2.87
2019-02-15T21:52:44.181Z,2.37
2019-02-15T21:55:15.282Z,2.73
2019-02-15T21:57:43.982Z,2.43
2019-02-15T22:00:15.427Z,3.23
2019-02-15T22:02:44.235Z,2.50
2019-02-15T22:05:12.928Z,2.60
2019-02-15T22:07:41.633Z,3.03
2019-02-15T22:10:10.518Z,2.87
2019-02-15T22:12:39.314Z,3.37
2019-02-15T22:15:13.197Z,2.40
2019-02-15T22:17:42.604Z,3.13
2019-02-15T22:20:15.770Z,2.73
2019-02-15T22:22:44.667Z,3.60
2019-02-15T22:25:13.353Z,2.80
2019-02-15T22:27:42.042Z,3.27
2019-02-15T22:30:18.708Z,2.97
2019-02-15T22:32:47.397Z,4.03
2019-02-15T22:35:17.526Z,3.00
2019-02-15T22:37:46.232Z,3.07
2019-02-15T22:40:34.641Z,3.73
2019-02-15T22:43:09.064Z,3.20
2019-02-15T22:45:37.723Z,3.93
2019-02-15T22:48:06.460Z,2.90
2019-02-15T22:50:36.312Z,3.30
2019-02-15T22:53:05.455Z,4.00
2019-02-15T22:55:34.108Z,3.97
2019-02-15T22:58:04.536Z,3.07
2019-02-15T23:00:52.797Z,3.47
2019-02-15T23:03:23.827Z,3.57
2019-02-15T23:05:52.520Z,4.13
2019-02-15T23:08:21.266Z,4.00
2019-02-15T23:10:49.934Z,3.20
2019-02-15T23:13:18.621Z,3.53
2019-02-15T23:15:47.286Z,3.90
2019-02-15T23:18:15.971Z,4.40
2019-02-15T23:20:45.503Z,3.50
2019-02-15T23:23:14.481Z,3.90
2019-02-15T23:25:43.196Z,3.63
2019-02-15T23:28:13.082Z,3.90
2019-02-15T23:30:43.492Z,3.10
2019-02-15T23:33:12.157Z,2.90
2019-02-15T23:35:40.863Z,3.80
2019-02-15T23:38:09.571Z,3.73
2019-02-15T23:40:38.329Z,5.17
2019-02-15T23:43:07.039Z,4.50
2019-02-15T23:45:35.708Z,3.97
2019-02-15T23:48:04.492Z,3.43
2019-02-15T23:50:33.339Z,4.60
2019-02-15T23:53:02.036Z,3.50
2019-02-15T23:55:30.736Z,4.40
2019-02-15T23:57:59.629Z,3.07
